Time;durP1;ratioP1;P1;durP2;ratioP2;P2;SDS_P1;SDS_P2;PMS_P1;PMS_P2;Temp;Humidity;BMP_temperature;BMP_pressure;BME280_temperature;BME280_humidity;BME280_pressure;Samples;Min_cycle;Max_cycle;Signal;HPM_P1;HPM_P2
2024/01/10 00:01:53;0.00;0.00;0.62;0.00;0.00;0.62;3.17;2.17;;;16.90;17.80;;;;;;2248157;61;20383;-54
2024/01/10 00:04:38;0.00;0.00;0.62;0.00;0.00;0.62;4.20;2.33;;;16.90;17.80;;;;;;2248181;61;20795;-55
2024/01/10 00:07:23;0.00;0.00;0.62;0.00;0.00;0.62;3.03;2.33;;;16.90;17.80;;;;;;2248261;61;20368;-54
2024/01/10 00:10:08;0.00;0.00;0.62;0.00;0.00;0.62;2.33;2.00;;;16.90;17.80;;;;;;2248199;61;20905;-53
2024/01/10 00:12:54;0.00;0.00;0.62;0.00;0.00;0.62;2.80;2.13;;;16.80;17.70;;;;;;2247820;61;20403;-56
2024/01/10 00:15:38;0.00;0.00;0.62;0.00;0.00;0.62;2.60;2.30;;;16.80;17.70;;;;;;2248236;61;20984;-57
2024/01/10 00:18:24;0.00;0.00;0.62;0.00;0.00;0.62;3.57;2.53;;;16.80;18.20;;;;;;2248302;61;20391;-57
2024/01/10 00:21:11;0.00;0.00;0.62;0.00;0.00;0.62;2.63;2.33;;;16.90;17.80;;;;;;2248279;61;20392;-56
2024/01/10 00:23:55;0.00;0.00;0.62;0.00;0.00;0.62;2.87;2.57;;;16.80;17.70;;;;;;2248116;61;20400;-55
2024/01/10 00:26:40;0.00;0.00;0.62;0.00;0.00;0.62;3.03;2.13;;;16.80;17.80;;;;;;2248086;61;20367;-58
2024/01/10 00:29:24;0.00;0.00;0.62;0.00;0.00;0.62;3.10;2.50;;;16.80;17.70;;;;;;2248388;61;20404;-57
2024/01/10 00:32:09;0.00;0.00;0.62;0.00;0.00;0.62;2.67;1.93;;;16.80;17.70;;;;;;2250136;61;20486;-56
2024/01/10 00:34:55;0.00;0.00;0.62;0.00;0.00;0.62;2.70;2.30;;;16.80;17.80;;;;;;2248100;61;20440;-55
2024/01/10 00:37:39;0.00;0.00;0.62;0.00;0.00;0.62;3.60;2.67;;;16.80;17.80;;;;;;2248129;61;20395;-58
2024/01/10 00:40:24;0.00;0.00;0.62;0.00;0.00;0.62;3.17;2.40;;;16.80;17.80;;;;;;2248183;61;20383;-58
2024/01/10 00:43:09;0.00;0.00;0.62;0.00;0.00;0.62;2.73;1.97;;;16.80;17.80;;;;;;2247717;61;20888;-56
2024/01/10 00:45:54;0.00;0.00;0.62;0.00;0.00;0.62;4.50;3.10;;;16.80;17.80;;;;;;2248274;61;20371;-57
2024/01/10 00:48:38;0.00;0.00;0.62;0.00;0.00;0.62;3.43;2.53;;;16.80;17.70;;;;;;2247860;61;20363;-56
2024/01/10 00:51:25;0.00;0.00;0.62;0.00;0.00;0.62;3.10;2.07;;;16.80;17.80;;;;;;2247767;61;20402;-56
2024/01/10 00:54:10;0.00;0.00;0.62;0.00;0.00;0.62;3.70;2.53;;;16.80;17.80;;;;;;2248245;61;20376;-57
2024/01/10 00:56:54;0.00;0.00;0.62;0.00;0.00;0.62;3.60;2.43;;;16.80;17.70;;;;;;2248296;61;20975;-57
2024/01/10 00:59:39;0.00;0.00;0.62;0.00;0.00;0.62;2.43;1.80;;;16.80;17.80;;;;;;2248290;61;20920;-59
2024/01/10 01:02:24;0.00;0.00;0.62;0.00;0.00;0.62;3.80;2.70;;;16.80;17.80;;;;;;2247827;61;20979;-57
2024/01/10 01:05:08;0.00;0.00;0.62;0.00;0.00;0.62;3.30;2.50;;;16.80;17.80;;;;;;2247849;61;20463;-59
2024/01/10 01:07:55;0.00;0.00;0.62;0.00;0.00;0.62;3.57;2.60;;;16.80;17.80;;;;;;2248267;61;20856;-59
2024/01/10 01:10:39;0.00;0.00;0.62;0.00;0.00;0.62;3.53;2.90;;;16.80;17.80;;;;;;2248509;61;20395;-59
2024/01/10 01:13:24;0.00;0.00;0.62;0.00;0.00;0.62;3.80;3.00;;;16.80;17.80;;;;;;2248723;61;20368;-54
2024/01/10 01:16:09;0.00;0.00;0.62;0.00;0.00;0.62;3.30;2.40;;;16.70;17.60;;;;;;2248756;61;20455;-57
2024/01/10 01:18:54;0.00;0.00;0.62;0.00;0.00;0.62;3.30;2.60;;;16.80;17.80;;;;;;2248775;61;20444;-55
2024/01/10 01:21:39;0.00;0.00;0.62;0.00;0.00;0.62;3.07;2.30;;;16.70;17.70;;;;;;2248607;61;20996;-58
2024/01/10 01:24:24;0.00;0.00;0.62;0.00;0.00;0.62;2.90;2.40;;;16.70;17.70;;;;;;2249076;61;20375;-57
2024/01/10 01:27:09;0.00;0.00;0.62;0.00;0.00;0.62;3.77;2.60;;;16.70;17.70;;;;;;2248569;61;20359;-51
2024/01/10 01:29:54;0.00;0.00;0.62;0.00;0.00;0.62;4.73;2.97;;;16.70;17.70;;;;;;2248964;61;20415;-54
2024/01/10 01:32:38;0.00;0.00;0.62;0.00;0.00;0.62;4.00;2.47;;;16.70;17.70;;;;;;2248337;61;20411;-57
2024/01/10 01:35:23;0.00;0.00;0.62;0.00;0.00;0.62;3.17;2.00;;;16.70;17.70;;;;;;2248862;61;20376;-54
2024/01/10 01:38:08;0.00;0.00;0.62;0.00;0.00;0.62;3.57;2.37;;;16.70;17.70;;;;;;2248937;61;20368;-55
2024/01/10 01:40:54;0.00;0.00;0.62;0.00;0.00;0.62;4.17;3.13;;;16.70;17.70;;;;;;2248682;61;20423;-55
2024/01/10 01:43:38;0.00;0.00;0.62;0.00;0.00;0.62;3.67;2.57;;;16.70;17.70;;;;;;2248593;61;20383;-58
2024/01/10 01:46:23;0.00;0.00;0.62;0.00;0.00;0.62;3.17;2.50;;;16.70;17.70;;;;;;2248920;61;20366;-57
2024/01/10 01:49:11;0.00;0.00;0.62;0.00;0.00;0.62;3.63;2.30;;;16.70;17.70;;;;;;2248713;61;20892;-54
2024/01/10 01:51:56;0.00;0.00;0.62;0.00;0.00;0.62;3.03;2.40;;;16.70;17.70;;;;;;2248678;61;20431;-54
2024/01/10 01:54:40;0.00;0.00;0.62;0.00;0.00;0.62;3.10;2.57;;;16.70;18.20;;;;;;2248554;61;20436;-56
2024/01/10 01:57:27;0.00;0.00;0.62;0.00;0.00;0.62;3.90;2.60;;;16.70;17.70;;;;;;2248189;61;20424;-53
2024/01/10 02:00:12;0.00;0.00;0.62;0.00;0.00;0.62;4.20;3.00;;;16.70;17.70;;;;;;2248973;61;20807;-57
2024/01/10 02:02:58;0.00;0.00;0.62;0.00;0.00;0.62;2.77;2.30;;;16.70;17.70;;;;;;2248126;61;20423;-58
2024/01/10 02:05:43;0.00;0.00;0.62;0.00;0.00;0.62;3.37;2.53;;;16.70;17.70;;;;;;2248921;61;20864;-54
2024/01/10 02:08:27;0.00;0.00;0.62;0.00;0.00;0.62;3.83;3.13;;;16.70;17.70;;;;;;2248627;61;20368;-59
2024/01/10 02:11:12;0.00;0.00;0.62;0.00;0.00;0.62;3.83;3.00;;;16.60;17.60;;;;;;2248351;61;20392;-58
2024/01/10 02:13:58;0.00;0.00;0.62;0.00;0.00;0.62;4.20;3.07;;;16.70;17.70;;;;;;2248821;61;20897;-57
2024/01/10 02:16:43;0.00;0.00;0.62;0.00;0.00;0.62;3.70;2.87;;;16.60;17.60;;;;;;2248864;61;20741;-58
2024/01/10 02:19:29;0.00;0.00;0.62;0.00;0.00;0.62;3.23;2.63;;;16.70;17.70;;;;;;2248975;61;20367;-57
2024/01/10 02:22:13;0.00;0.00;0.62;0.00;0.00;0.62;3.80;2.87;;;16.70;17.70;;;;;;2247605;61;20471;-58
2024/01/10 02:24:59;0.00;0.00;0.62;0.00;0.00;0.62;3.67;2.90;;;16.70;17.70;;;;;;2244324;61;20391;-55
2024/01/10 02:27:44;0.00;0.00;0.62;0.00;0.00;0.62;4.00;2.93;;;16.60;17.60;;;;;;2244840;61;20372;-59
2024/01/10 02:30:29;0.00;0.00;0.62;0.00;0.00;0.62;5.00;3.27;;;16.70;17.70;;;;;;2245892;61;20380;-56
2024/01/10 02:33:13;0.00;0.00;0.62;0.00;0.00;0.62;3.27;2.80;;;16.70;17.70;;;;;;2247830;61;20471;-52
2024/01/10 02:35:58;0.00;0.00;0.62;0.00;0.00;0.62;3.83;2.70;;;16.70;17.70;;;;;;2248972;61;20919;-56
2024/01/10 02:38:42;0.00;0.00;0.62;0.00;0.00;0.62;3.90;2.53;;;16.70;17.70;;;;;;2248898;61;20427;-57
2024/01/10 02:41:28;0.00;0.00;0.62;0.00;0.00;0.62;4.27;2.83;;;16.70;17.70;;;;;;2248596;61;20481;-56
2024/01/10 02:44:14;0.00;0.00;0.62;0.00;0.00;0.62;3.57;2.27;;;16.70;17.70;;;;;;2248681;61;20759;-56
2024/01/10 02:46:58;0.00;0.00;0.62;0.00;0.00;0.62;3.57;2.67;;;16.70;17.70;;;;;;2248570;61;20773;-56
2024/01/10 02:49:43;0.00;0.00;0.62;0.00;0.00;0.62;3.73;2.80;;;16.70;17.70;;;;;;2248367;61;20356;-55
2024/01/10 02:52:28;0.00;0.00;0.62;0.00;0.00;0.62;2.30;1.97;;;16.70;17.60;;;;;;2248264;61;20438;-58
2024/01/10 02:55:12;0.00;0.00;0.62;0.00;0.00;0.62;2.70;2.30;;;16.70;17.60;;;;;;2247694;61;20844;-55
2024/01/10 02:57:58;0.00;0.00;0.62;0.00;0.00;0.62;3.33;2.23;;;16.70;17.60;;;;;;2248447;61;20363;-53
2024/01/10 03:00:43;0.00;0.00;0.62;0.00;0.00;0.62;3.93;3.00;;;16.70;17.60;;;;;;2248854;61;20865;-58
2024/01/10 03:03:27;0.00;0.00;0.62;0.00;0.00;0.62;3.50;2.80;;;16.70;17.60;;;;;;2248254;61;20406;-59
2024/01/10 03:06:12;0.00;0.00;0.62;0.00;0.00;0.62;3.33;2.47;;;16.70;17.60;;;;;;2248628;61;20395;-55
2024/01/10 03:08:56;0.00;0.00;0.62;0.00;0.00;0.62;3.63;2.60;;;16.60;17.60;;;;;;2248450;61;20391;-58
2024/01/10 03:14:26;0.00;0.00;0.62;0.00;0.00;0.62;3.40;2.40;;;16.70;17.70;;;;;;2254256;61;20372;-54
2024/01/10 03:17:10;0.00;0.00;0.62;0.00;0.00;0.62;3.90;2.90;;;16.70;17.60;;;;;;2252124;61;20425;-58
2024/01/10 03:19:55;0.00;0.00;0.62;0.00;0.00;0.62;3.83;2.63;;;16.70;17.60;;;;;;2252656;61;20406;-55
2024/01/10 03:22:39;0.00;0.00;0.62;0.00;0.00;0.62;4.80;2.70;;;16.60;17.60;;;;;;2252017;61;20399;-57
2024/01/10 03:25:24;0.00;0.00;0.62;0.00;0.00;0.62;4.10;2.53;;;16.70;17.60;;;;;;2252226;61;20887;-57
2024/01/10 03:28:08;0.00;0.00;0.62;0.00;0.00;0.62;4.93;3.27;;;16.70;17.60;;;;;;2524489;45;20407;-59
2024/01/10 03:30:54;0.00;0.00;0.62;0.00;0.00;0.62;3.60;2.80;;;16.70;17.60;;;;;;2248272;61;20399;-57
2024/01/10 03:33:39;0.00;0.00;0.62;0.00;0.00;0.62;5.13;3.10;;;16.60;17.60;;;;;;2248339;61;20510;-58
2024/01/10 03:36:24;0.00;0.00;0.62;0.00;0.00;0.62;4.00;2.67;;;16.70;17.60;;;;;;2248596;61;20407;-55
2024/01/10 03:39:10;0.00;0.00;0.62;0.00;0.00;0.62;3.77;2.97;;;16.70;17.60;;;;;;2248160;61;20343;-56
2024/01/10 03:41:54;0.00;0.00;0.62;0.00;0.00;0.62;4.80;3.27;;;16.60;17.60;;;;;;2248197;61;20835;-55
2024/01/10 03:44:39;0.00;0.00;0.62;0.00;0.00;0.62;6.30;3.27;;;16.60;17.60;;;;;;2248304;61;20407;-56
2024/01/10 03:47:25;0.00;0.00;0.62;0.00;0.00;0.62;3.70;3.10;;;16.60;17.60;;;;;;2248252;61;20372;-59
2024/01/10 03:50:09;0.00;0.00;0.62;0.00;0.00;0.62;4.00;2.93;;;16.60;17.60;;;;;;2248210;61;20575;-57
2024/01/10 03:52:54;0.00;0.00;0.62;0.00;0.00;0.62;3.60;2.83;;;16.60;17.60;;;;;;2248294;61;20391;-56
2024/01/10 03:55:39;0.00;0.00;0.62;0.00;0.00;0.62;3.40;2.97;;;16.60;17.60;;;;;;2248637;61;20865;-59
2024/01/10 03:58:24;0.00;0.00;0.62;0.00;0.00;0.62;3.73;2.73;;;16.60;17.60;;;;;;2248513;61;20906;-55
2024/01/10 04:01:09;0.00;0.00;0.62;0.00;0.00;0.62;3.10;2.57;;;16.60;17.60;;;;;;2247949;61;20379;-58
2024/01/10 04:03:55;0.00;0.00;0.62;0.00;0.00;0.62;4.40;2.83;;;16.60;17.60;;;;;;2248264;61;20364;-64
2024/01/10 04:06:39;0.00;0.00;0.62;0.00;0.00;0.62;5.50;3.67;;;16.60;17.60;;;;;;2248517;61;20422;-57
2024/01/10 04:09:24;0.00;0.00;0.62;0.00;0.00;0.62;3.63;2.43;;;16.60;17.60;;;;;;2248326;61;20403;-56
2024/01/10 04:12:08;0.00;0.00;0.62;0.00;0.00;0.62;4.10;2.63;;;16.50;17.50;;;;;;2247959;61;20391;-59
2024/01/10 04:14:53;0.00;0.00;0.62;0.00;0.00;0.62;3.80;3.13;;;16.60;17.60;;;;;;2248483;61;20443;-58
2024/01/10 04:17:38;0.00;0.00;0.62;0.00;0.00;0.62;4.07;2.93;;;16.50;17.50;;;;;;2248234;61;20384;-56
2024/01/10 04:20:24;0.00;0.00;0.62;0.00;0.00;0.62;4.93;3.20;;;16.50;17.50;;;;;;2248485;61;20372;-54
2024/01/10 04:23:08;0.00;0.00;0.62;0.00;0.00;0.62;4.10;3.13;;;16.50;17.50;;;;;;2247597;61;20889;-59
2024/01/10 04:25:53;0.00;0.00;0.62;0.00;0.00;0.62;4.93;3.10;;;16.50;17.50;;;;;;2248467;61;20423;-56
2024/01/10 04:28:40;0.00;0.00;0.62;0.00;0.00;0.62;4.80;3.43;;;16.50;17.50;;;;;;2248435;61;20891;-58
2024/01/10 04:31:24;0.00;0.00;0.62;0.00;0.00;0.62;4.83;3.63;;;16.50;17.50;;;;;;2247964;61;20888;-56
2024/01/10 04:34:09;0.00;0.00;0.62;0.00;0.00;0.62;4.20;3.10;;;16.50;17.50;;;;;;2248303;61;20392;-54
2024/01/10 04:36:55;0.00;0.00;0.62;0.00;0.00;0.62;6.30;3.10;;;16.50;17.50;;;;;;2248512;61;20407;-55
2024/01/10 04:39:40;0.00;0.00;0.62;0.00;0.00;0.62;4.40;3.27;;;16.50;17.50;;;;;;2248103;61;20371;-56
2024/01/10 04:42:25;0.00;0.00;0.62;0.00;0.00;0.62;3.73;3.07;;;16.50;17.50;;;;;;2283603;40;20409;-57
2024/01/10 04:45:10;0.00;0.00;0.62;0.00;0.00;0.62;4.13;3.00;;;16.50;17.50;;;;;;2255984;61;20425;-57
2024/01/10 04:47:54;0.00;0.00;0.62;0.00;0.00;0.62;4.10;3.10;;;16.50;17.60;;;;;;2256586;61;20389;-56
2024/01/10 04:50:39;0.00;0.00;0.62;0.00;0.00;0.62;4.10;3.17;;;16.50;17.50;;;;;;2255478;61;20454;-59
2024/01/10 04:53:25;0.00;0.00;0.62;0.00;0.00;0.62;4.07;3.00;;;16.50;17.50;;;;;;2251559;61;20375;-55
2024/01/10 04:56:10;0.00;0.00;0.62;0.00;0.00;0.62;4.50;3.40;;;16.50;17.50;;;;;;2252367;61;20363;-54
2024/01/10 04:58:54;0.00;0.00;0.62;0.00;0.00;0.62;4.77;3.80;;;16.50;17.50;;;;;;2251927;61;20412;-59
2024/01/10 05:01:39;0.00;0.00;0.62;0.00;0.00;0.62;3.60;3.00;;;16.50;17.50;;;;;;2251709;61;20761;-56
2024/01/10 05:04:23;0.00;0.00;0.62;0.00;0.00;0.62;4.40;3.00;;;16.50;17.50;;;;;;2252037;61;20370;-56
2024/01/10 05:07:08;0.00;0.00;0.62;0.00;0.00;0.62;4.73;3.30;;;16.50;17.60;;;;;;2252056;61;20451;-60
2024/01/10 05:09:53;0.00;0.00;0.62;0.00;0.00;0.62;4.73;3.20;;;16.40;17.50;;;;;;2252354;61;20395;-58
2024/01/10 05:12:38;0.00;0.00;0.62;0.00;0.00;0.62;4.13;3.33;;;16.40;17.50;;;;;;2251775;61;20395;-58
2024/01/10 05:15:23;0.00;0.00;0.62;0.00;0.00;0.62;5.67;3.70;;;16.40;17.50;;;;;;2252001;61;20378;-56
2024/01/10 05:18:08;0.00;0.00;0.62;0.00;0.00;0.62;4.50;3.63;;;16.40;17.50;;;;;;2252151;61;20366;-58
2024/01/10 05:20:52;0.00;0.00;0.62;0.00;0.00;0.62;5.37;3.93;;;16.40;17.50;;;;;;2252218;61;20430;-56
2024/01/10 05:23:38;0.00;0.00;0.62;0.00;0.00;0.62;4.77;4.00;;;16.40;17.50;;;;;;2251556;61;20370;-55
2024/01/10 05:26:24;0.00;0.00;0.62;0.00;0.00;0.62;5.27;3.90;;;16.40;17.50;;;;;;2252180;61;20383;-57
2024/01/10 05:29:09;0.00;0.00;0.62;0.00;0.00;0.62;4.70;3.30;;;16.40;17.50;;;;;;2251719;61;20375;-59
2024/01/10 05:31:53;0.00;0.00;0.62;0.00;0.00;0.62;5.33;3.93;;;16.40;17.50;;;;;;2251728;61;20446;-60
2024/01/10 05:34:38;0.00;0.00;0.62;0.00;0.00;0.62;6.10;4.20;;;16.40;17.50;;;;;;2252344;61;20366;-54
2024/01/10 05:37:22;0.00;0.00;0.62;0.00;0.00;0.62;5.50;3.43;;;16.40;17.50;;;;;;2251921;61;20434;-56
2024/01/10 05:40:08;0.00;0.00;0.62;0.00;0.00;0.62;5.97;3.93;;;16.40;17.50;;;;;;2252325;61;20513;-58
2024/01/10 05:42:54;0.00;0.00;0.62;0.00;0.00;0.62;4.77;3.87;;;16.40;17.50;;;;;;2251749;61;20382;-55
2024/01/10 05:45:39;0.00;0.00;0.62;0.00;0.00;0.62;5.50;3.80;;;16.40;17.50;;;;;;2252022;61;20417;-56
2024/01/10 05:48:24;0.00;0.00;0.62;0.00;0.00;0.62;5.50;3.60;;;16.40;17.50;;;;;;2252264;61;20591;-58
2024/01/10 05:51:08;0.00;0.00;0.62;0.00;0.00;0.62;5.47;3.60;;;16.30;17.50;;;;;;2252030;61;20623;-56
2024/01/10 05:53:53;0.00;0.00;0.62;0.00;0.00;0.62;6.20;3.97;;;16.40;17.50;;;;;;2251885;61;20370;-58
2024/01/10 05:56:38;0.00;0.00;0.62;0.00;0.00;0.62;5.03;3.80;;;16.40;17.50;;;;;;2252620;61;20363;-56
2024/01/10 05:59:25;0.00;0.00;0.62;0.00;0.00;0.62;5.60;4.40;;;16.40;17.50;;;;;;2252469;61;20919;-55
2024/01/10 06:02:09;0.00;0.00;0.62;0.00;0.00;0.62;4.70;3.43;;;16.40;17.60;;;;;;2252298;61;20402;-57
2024/01/10 06:04:54;0.00;0.00;0.62;0.00;0.00;0.62;5.10;3.93;;;16.40;17.60;;;;;;2252901;61;20381;-57
2024/01/10 06:07:42;0.00;0.00;0.62;0.00;0.00;0.62;4.53;3.87;;;16.30;17.50;;;;;;2252443;61;20895;-54
2024/01/10 06:10:27;0.00;0.00;0.62;0.00;0.00;0.62;5.63;3.77;;;16.30;17.50;;;;;;2252662;61;20359;-58
2024/01/10 06:13:11;0.00;0.00;0.62;0.00;0.00;0.62;6.03;3.87;;;16.30;17.50;;;;;;2252295;61;20367;-55
2024/01/10 06:15:58;0.00;0.00;0.62;0.00;0.00;0.62;4.53;3.20;;;16.30;17.50;;;;;;2252625;61;20422;-55
2024/01/10 06:18:42;0.00;0.00;0.62;0.00;0.00;0.62;3.67;3.13;;;16.30;17.60;;;;;;2252700;61;20447;-57
2024/01/10 06:21:27;0.00;0.00;0.62;0.00;0.00;0.62;6.20;4.60;;;16.30;17.50;;;;;;2252191;61;20379;-57
2024/01/10 06:24:12;0.00;0.00;0.62;0.00;0.00;0.62;4.47;3.33;;;16.30;17.50;;;;;;2252771;61;20366;-57
2024/01/10 06:26:56;0.00;0.00;0.62;0.00;0.00;0.62;5.30;3.77;;;16.30;17.60;;;;;;2252821;61;20406;-58
2024/01/10 06:29:41;0.00;0.00;0.62;0.00;0.00;0.62;4.40;3.70;;;16.30;17.60;;;;;;2252490;61;20392;-58
2024/01/10 06:32:27;0.00;0.00;0.62;0.00;0.00;0.62;4.60;3.97;;;16.30;17.60;;;;;;2252530;61;21081;-57
2024/01/10 06:35:11;0.00;0.00;0.62;0.00;0.00;0.62;4.87;3.87;;;16.30;17.60;;;;;;2252720;61;20975;-57
2024/01/10 06:37:56;0.00;0.00;0.62;0.00;0.00;0.62;4.87;3.90;;;16.30;17.60;;;;;;2252446;61;20827;-57
2024/01/10 06:40:40;0.00;0.00;0.62;0.00;0.00;0.62;4.90;3.93;;;16.30;17.60;;;;;;2252525;61;20366;-57
2024/01/10 06:43:25;0.00;0.00;0.62;0.00;0.00;0.62;6.70;4.37;;;16.30;17.60;;;;;;2251825;61;20360;-56
2024/01/10 06:46:11;0.00;0.00;0.62;0.00;0.00;0.62;4.80;3.80;;;16.30;17.60;;;;;;2252673;61;20362;-58
2024/01/10 06:48:57;0.00;0.00;0.62;0.00;0.00;0.62;5.73;4.27;;;16.30;17.60;;;;;;2252825;61;20429;-57
2024/01/10 06:51:41;0.00;0.00;0.62;0.00;0.00;0.62;5.70;3.73;;;16.30;17.60;;;;;;2251876;61;20460;-56
2024/01/10 06:54:26;0.00;0.00;0.62;0.00;0.00;0.62;6.53;3.97;;;16.30;17.60;;;;;;2252506;61;20363;-55
2024/01/10 06:57:10;0.00;0.00;0.62;0.00;0.00;0.62;4.83;3.87;;;16.30;17.60;;;;;;2252684;61;20461;-56
2024/01/10 06:59:55;0.00;0.00;0.62;0.00;0.00;0.62;5.27;3.80;;;16.30;17.60;;;;;;2252293;61;20418;-57
2024/01/10 07:02:40;0.00;0.00;0.62;0.00;0.00;0.62;4.60;3.67;;;16.30;17.60;;;;;;2252175;61;20379;-55
2024/01/10 07:05:28;0.00;0.00;0.62;0.00;0.00;0.62;6.30;4.60;;;16.30;17.60;;;;;;2252726;61;20370;-56
2024/01/10 07:08:12;0.00;0.00;0.62;0.00;0.00;0.62;5.60;3.90;;;16.30;17.60;;;;;;2252414;61;20363;-54
2024/01/10 07:10:57;0.00;0.00;0.62;0.00;0.00;0.62;5.23;4.43;;;16.20;17.50;;;;;;2252485;61;20425;-55
2024/01/10 07:13:41;0.00;0.00;0.62;0.00;0.00;0.62;7.30;5.07;;;16.20;17.60;;;;;;2251969;61;20418;-55
2024/01/10 07:16:26;0.00;0.00;0.62;0.00;0.00;0.62;4.47;3.73;;;16.20;17.50;;;;;;2252643;61;20403;-58
2024/01/10 07:19:13;0.00;0.00;0.62;0.00;0.00;0.62;6.77;3.93;;;16.20;17.60;;;;;;2252438;61;20370;-57
2024/01/10 07:21:59;0.00;0.00;0.62;0.00;0.00;0.62;6.27;4.73;;;16.20;17.60;;;;;;2252008;61;20383;-59
2024/01/10 07:24:43;0.00;0.00;0.62;0.00;0.00;0.62;6.93;4.40;;;16.20;17.60;;;;;;2252880;61;20386;-59
2024/01/10 07:27:28;0.00;0.00;0.62;0.00;0.00;0.62;6.07;4.07;;;16.20;17.60;;;;;;2252581;61;20916;-57
2024/01/10 07:30:15;0.00;0.00;0.62;0.00;0.00;0.62;5.13;4.40;;;16.20;17.60;;;;;;2252423;61;20446;-56
2024/01/10 07:33:01;0.00;0.00;0.62;0.00;0.00;0.62;6.40;4.40;;;16.20;17.60;;;;;;2252066;61;20415;-55
2024/01/10 07:35:45;0.00;0.00;0.62;0.00;0.00;0.62;5.93;4.87;;;16.20;17.60;;;;;;2252138;61;20367;-58
2024/01/10 07:38:31;0.00;0.00;0.62;0.00;0.00;0.62;7.90;4.70;;;16.20;17.60;;;;;;2252476;61;20893;-55
2024/01/10 07:41:16;0.00;0.00;0.62;0.00;0.00;0.62;7.90;5.43;;;16.20;17.60;;;;;;2252457;61;20441;-57
2024/01/10 07:44:01;0.00;0.00;0.62;0.00;0.00;0.62;8.20;5.10;;;16.20;17.60;;;;;;2252203;61;20378;-59
2024/01/10 07:46:45;0.00;0.00;0.62;0.00;0.00;0.62;5.63;4.80;;;16.20;17.60;;;;;;2252434;61;20379;-55
2024/01/10 07:49:30;0.00;0.00;0.62;0.00;0.00;0.62;8.27;5.50;;;16.20;17.60;;;;;;2252659;61;20363;-59
2024/01/10 07:52:19;0.00;0.00;0.62;0.00;0.00;0.62;7.90;5.87;;;16.20;17.60;;;;;;2251372;61;20514;-57
2024/01/10 07:55:06;0.00;0.00;0.62;0.00;0.00;0.62;7.37;5.40;;;16.20;17.60;;;;;;2252202;61;20494;-58
2024/01/10 07:57:51;0.00;0.00;0.62;0.00;0.00;0.62;9.87;6.27;;;16.20;17.60;;;;;;2252125;61;20474;-56
2024/01/10 08:00:35;0.00;0.00;0.62;0.00;0.00;0.62;7.20;5.17;;;16.20;17.60;;;;;;2252083;61;20366;-56
2024/01/10 08:03:20;0.00;0.00;0.62;0.00;0.00;0.62;8.30;5.27;;;16.20;17.60;;;;;;2251834;61;20509;-58
2024/01/10 08:06:05;0.00;0.00;0.62;0.00;0.00;0.62;7.43;5.43;;;16.20;17.60;;;;;;2252068;61;20906;-58
2024/01/10 08:08:50;0.00;0.00;0.62;0.00;0.00;0.62;7.50;5.17;;;16.20;17.60;;;;;;2252555;61;20379;-59
2024/01/10 08:11:37;0.00;0.00;0.62;0.00;0.00;0.62;8.10;5.13;;;16.10;17.50;;;;;;2251724;61;20452;-57
2024/01/10 08:14:22;0.00;0.00;0.62;0.00;0.00;0.62;8.60;5.40;;;16.20;17.60;;;;;;2252401;61;20801;-58
2024/01/10 08:17:07;0.00;0.00;0.62;0.00;0.00;0.62;7.17;5.53;;;16.20;17.60;;;;;;2253007;61;20443;-52
2024/01/10 08:19:52;0.00;0.00;0.62;0.00;0.00;0.62;6.60;5.27;;;16.20;17.60;;;;;;2252085;61;20824;-55
2024/01/10 08:22:37;0.00;0.00;0.62;0.00;0.00;0.62;6.60;5.13;;;16.20;17.60;;;;;;2252372;61;20426;-55
2024/01/10 08:25:22;0.00;0.00;0.62;0.00;0.00;0.62;6.90;5.57;;;16.10;17.50;;;;;;2252520;61;20887;-56
2024/01/10 08:28:09;0.00;0.00;0.62;0.00;0.00;0.62;7.37;5.10;;;16.20;17.60;;;;;;2252427;61;20370;-59
2024/01/10 08:30:54;0.00;0.00;0.62;0.00;0.00;0.62;6.97;5.13;;;16.10;17.60;;;;;;2254394;61;20389;-54
2024/01/10 08:33:39;0.00;0.00;0.62;0.00;0.00;0.62;6.83;4.90;;;16.10;17.60;;;;;;2256594;61;20374;-53
2024/01/10 08:36:27;0.00;0.00;0.62;0.00;0.00;0.62;6.67;5.20;;;16.10;17.60;;;;;;2256416;61;20369;-55
2024/01/10 08:39:12;0.00;0.00;0.62;0.00;0.00;0.62;5.60;5.00;;;16.10;17.60;;;;;;2256664;61;20393;-54
2024/01/10 08:41:56;0.00;0.00;0.62;0.00;0.00;0.62;7.33;4.50;;;16.20;17.70;;;;;;2255721;61;20482;-56
2024/01/10 08:44:43;0.00;0.00;0.62;0.00;0.00;0.62;8.80;5.30;;;16.10;17.60;;;;;;2256804;61;20366;-53
2024/01/10 08:47:31;0.00;0.00;0.62;0.00;0.00;0.62;6.57;4.93;;;16.10;17.60;;;;;;2256539;61;20886;-57
2024/01/10 08:50:16;0.00;0.00;0.62;0.00;0.00;0.62;7.50;5.50;;;16.10;17.60;;;;;;2256466;61;20499;-55
2024/01/10 08:53:04;0.00;0.00;0.62;0.00;0.00;0.62;7.50;4.87;;;16.10;17.60;;;;;;2256251;61;20385;-53
2024/01/10 08:55:49;0.00;0.00;0.62;0.00;0.00;0.62;6.40;5.27;;;16.20;17.70;;;;;;2256681;61;20349;-52
2024/01/10 08:58:33;0.00;0.00;0.62;0.00;0.00;0.62;7.53;5.60;;;16.10;17.60;;;;;;2256343;61;20369;-58
2024/01/10 09:01:19;0.00;0.00;0.62;0.00;0.00;0.62;6.97;5.80;;;16.10;17.50;;;;;;2256748;61;20424;-56
2024/01/10 09:04:04;0.00;0.00;0.62;0.00;0.00;0.62;9.23;6.10;;;16.20;17.60;;;;;;2256617;61;20870;-53
2024/01/10 09:06:49;0.00;0.00;0.62;0.00;0.00;0.62;8.73;6.00;;;16.10;17.60;;;;;;2256572;61;20366;-54
2024/01/10 09:09:33;0.00;0.00;0.62;0.00;0.00;0.62;8.40;6.20;;;16.20;17.60;;;;;;2256579;61;20433;-58
2024/01/10 09:12:18;0.00;0.00;0.62;0.00;0.00;0.62;9.60;6.60;;;16.20;17.60;;;;;;2255825;61;20961;-58
2024/01/10 09:15:03;0.00;0.00;0.62;0.00;0.00;0.62;7.70;5.90;;;16.20;17.60;;;;;;2256603;61;20405;-53
2024/01/10 09:17:49;0.00;0.00;0.62;0.00;0.00;0.62;7.17;6.20;;;16.20;17.60;;;;;;2256583;61;20370;-58
2024/01/10 09:20:35;0.00;0.00;0.62;0.00;0.00;0.62;7.30;6.17;;;16.20;17.60;;;;;;2256351;61;20373;-55
2024/01/10 09:23:20;0.00;0.00;0.62;0.00;0.00;0.62;9.13;6.30;;;16.20;17.60;;;;;;2256394;61;20366;-57
2024/01/10 09:26:04;0.00;0.00;0.62;0.00;0.00;0.62;7.83;6.03;;;16.20;17.60;;;;;;2256443;61;20366;-53
2024/01/10 09:28:49;0.00;0.00;0.62;0.00;0.00;0.62;7.27;6.13;;;16.20;17.60;;;;;;2256663;61;20449;-56
2024/01/10 09:31:33;0.00;0.00;0.62;0.00;0.00;0.62;8.73;6.00;;;16.20;17.60;;;;;;2256147;61;20444;-58
2024/01/10 09:34:20;0.00;0.00;0.62;0.00;0.00;0.62;7.70;5.67;;;16.20;17.60;;;;;;2256872;61;20433;-57
2024/01/10 09:37:05;0.00;0.00;0.62;0.00;0.00;0.62;8.93;6.53;;;16.20;17.60;;;;;;2257377;61;20887;-56
2024/01/10 09:39:49;0.00;0.00;0.62;0.00;0.00;0.62;8.00;5.80;;;16.20;17.70;;;;;;2257384;61;20389;-56
2024/01/10 09:42:36;0.00;0.00;0.62;0.00;0.00;0.62;8.10;6.07;;;16.30;17.70;;;;;;2256578;61;20445;-57
2024/01/10 09:45:22;0.00;0.00;0.62;0.00;0.00;0.62;8.50;6.00;;;16.30;17.70;;;;;;2257268;61;20366;-54
2024/01/10 09:48:07;0.00;0.00;0.62;0.00;0.00;0.62;7.57;5.43;;;16.30;17.70;;;;;;2257447;61;20357;-52
2024/01/10 09:50:53;0.00;0.00;0.62;0.00;0.00;0.62;8.20;6.10;;;16.30;17.70;;;;;;2257388;61;20455;-54
2024/01/10 09:53:49;0.00;0.00;0.62;0.00;0.00;0.62;8.63;6.63;;;16.30;17.70;;;;;;2256913;61;20362;-55
2024/01/10 09:56:34;0.00;0.00;0.62;0.00;0.00;0.62;8.13;6.00;;;16.30;17.80;;;;;;2257114;61;20361;-56
2024/01/10 09:59:18;0.00;0.00;0.62;0.00;0.00;0.62;8.60;6.00;;;16.30;17.70;;;;;;2257329;61;20361;-57
2024/01/10 10:02:04;0.00;0.00;0.62;0.00;0.00;0.62;9.00;7.20;;;16.30;17.70;;;;;;2257215;61;20784;-56
2024/01/10 10:04:59;0.00;0.00;0.62;0.00;0.00;0.62;7.70;6.10;;;16.40;17.80;;;;;;2256943;61;20409;-58
2024/01/10 10:07:47;0.00;0.00;0.62;0.00;0.00;0.62;7.23;5.40;;;16.40;17.80;;;;;;2257482;61;20442;-56
2024/01/10 10:10:31;0.00;0.00;0.62;0.00;0.00;0.62;7.13;5.23;;;16.40;17.80;;;;;;2257191;61;20366;-55
2024/01/10 10:13:25;0.00;0.00;0.62;0.00;0.00;0.62;7.60;5.97;;;16.40;17.80;;;;;;2256827;61;20953;-57
2024/01/10 10:16:12;0.00;0.00;0.62;0.00;0.00;0.62;8.23;6.90;;;16.40;17.80;;;;;;2257168;61;20497;-58
2024/01/10 10:18:58;0.00;0.00;0.62;0.00;0.00;0.62;8.60;6.23;;;16.40;17.80;;;;;;2256855;61;20458;-60
2024/01/10 10:21:43;0.00;0.00;0.62;0.00;0.00;0.62;9.93;7.27;;;16.40;17.80;;;;;;2256880;61;20374;-58
2024/01/10 10:24:29;0.00;0.00;0.62;0.00;0.00;0.62;9.27;7.00;;;16.40;17.80;;;;;;2257327;61;20408;-58
2024/01/10 10:27:14;0.00;0.00;0.62;0.00;0.00;0.62;8.03;6.40;;;16.40;17.80;;;;;;2256867;61;20366;-57
2024/01/10 10:30:00;0.00;0.00;0.62;0.00;0.00;0.62;8.73;6.43;;;16.50;17.90;;;;;;2257301;61;20466;-56
2024/01/10 10:32:45;0.00;0.00;0.62;0.00;0.00;0.62;8.43;6.33;;;16.50;17.90;;;;;;2256346;61;20810;-54
2024/01/10 10:35:30;0.00;0.00;0.62;0.00;0.00;0.62;6.70;5.40;;;16.50;17.90;;;;;;2257463;61;20366;-59
2024/01/10 10:38:15;0.00;0.00;0.62;0.00;0.00;0.62;7.30;5.90;;;16.50;17.90;;;;;;2257343;61;20409;-56
2024/01/10 10:41:01;0.00;0.00;0.62;0.00;0.00;0.62;8.23;6.00;;;16.50;17.90;;;;;;2256717;61;20676;-51
2024/01/10 10:43:50;0.00;0.00;0.62;0.00;0.00;0.62;9.30;6.40;;;16.50;17.90;;;;;;2256653;61;20408;-56
2024/01/10 10:46:36;0.00;0.00;0.62;0.00;0.00;0.62;8.80;6.00;;;16.60;17.90;;;;;;2256908;61;20413;-51
2024/01/10 10:49:30;0.00;0.00;0.62;0.00;0.00;0.62;7.97;6.23;;;16.60;18.00;;;;;;2256959;61;20365;-54
2024/01/10 10:52:16;0.00;0.00;0.62;0.00;0.00;0.62;8.60;6.90;;;16.60;18.00;;;;;;2256546;61;20472;-55
2024/01/10 10:55:04;0.00;0.00;0.62;0.00;0.00;0.62;8.33;5.90;;;16.60;18.00;;;;;;2256995;61;20366;-56